createdAt,value
2023-01-23T00:00:22.969Z,13.02
2023-01-23T00:05:24.473Z,12.90
2023-01-23T00:10:25.955Z,11.50
2023-01-23T00:15:27.436Z,13.45
2023-01-23T00:20:28.937Z,12.82
2023-01-23T00:25:30.428Z,12.55
2023-01-23T00:30:32.568Z,13.18
2023-01-23T00:35:35.135Z,14.43
2023-01-23T00:40:36.654Z,13.30
2023-01-23T00:45:38.189Z,15.55
2023-01-23T00:50:40.044Z,11.25
2023-01-23T00:55:42.239Z,12.07
2023-01-23T01:00:43.691Z,13.45
2023-01-23T01:05:45.171Z,13.13
2023-01-23T01:10:46.739Z,14.13
2023-01-23T01:15:50.036Z,12.35
2023-01-23T01:20:51.562Z,13.13
2023-01-23T01:25:53.025Z,12.40
2023-01-23T01:31:03.154Z,15.65
2023-01-23T01:36:12.247Z,20.63
2023-01-23T01:41:14.725Z,18.63
2023-01-23T01:46:29.764Z,19.25
2023-01-23T01:51:35.749Z,18.20
2023-01-23T01:56:45.961Z,13.05
2023-01-23T02:01:51.834Z,17.50
2023-01-23T02:06:54.556Z,16.85
2023-01-23T02:11:56.110Z,17.05
2023-01-23T02:16:57.614Z,14.15
2023-01-23T02:22:12.244Z,19.00
2023-01-23T02:27:13.761Z,19.30
2023-01-23T02:32:16.355Z,17.55
2023-01-23T02:37:18.859Z,15.98
2023-01-23T02:42:22.981Z,16.50
2023-01-23T02:47:26.777Z,16.70
2023-01-23T02:52:31.418Z,17.90
2023-01-23T02:57:32.946Z,18.23
2023-01-23T03:02:34.461Z,15.55
2023-01-23T03:07:36.015Z,17.63
2023-01-23T03:12:38.395Z,16.67
2023-01-23T03:17:39.894Z,17.48
2023-01-23T03:22:42.233Z,17.38
2023-01-23T03:27:43.898Z,18.73
2023-01-23T03:32:45.913Z,14.20
2023-01-23T03:37:49.019Z,13.95
2023-01-23T03:42:51.257Z,15.52
2023-01-23T03:47:59.759Z,14.77
2023-01-23T03:53:01.242Z,16.50
2023-01-23T03:58:02.778Z,17.23
2023-01-23T04:03:06.398Z,17.17
2023-01-23T04:08:08.182Z,17.20
2023-01-23T04:13:11.020Z,14.35
2023-01-23T04:18:13.229Z,18.10
2023-01-23T04:23:14.858Z,13.93
2023-01-23T04:28:17.930Z,13.95
2023-01-23T04:33:21.732Z,17.70
2023-01-23T04:38:25.793Z,14.90
2023-01-23T04:43:27.569Z,16.27
2023-01-23T04:48:29.440Z,15.95
2023-01-23T04:53:30.960Z,17.05
2023-01-23T04:58:36.165Z,15.23
2023-01-23T05:03:39.238Z,18.08
2023-01-23T05:08:40.791Z,15.63
2023-01-23T05:13:52.413Z,14.18
2023-01-23T05:18:55.772Z,17.00
2023-01-23T05:23:57.541Z,17.02
2023-01-23T05:28:59.548Z,14.52
2023-01-23T05:34:01.125Z,14.30
2023-01-23T05:39:02.730Z,15.25
2023-01-23T05:44:05.288Z,14.68
2023-01-23T05:49:19.229Z,15.02
2023-01-23T05:54:20.859Z,13.75
2023-01-23T05:59:22.479Z,14.80
2023-01-23T06:04:55.964Z,11.13
2023-01-23T06:10:08.969Z,14.33
2023-01-23T06:15:12.272Z,13.43
2023-01-23T06:20:14.388Z,11.77
2023-01-23T06:25:19.103Z,11.40
2023-01-23T06:30:20.909Z,14.40
2023-01-23T06:35:24.687Z,15.65
2023-01-23T06:40:26.309Z,11.80
2023-01-23T06:45:45.806Z,15.35
2023-01-23T06:50:47.713Z,12.75
2023-01-23T06:55:49.279Z,12.98
2023-01-23T07:00:52.178Z,12.10
2023-01-23T07:06:15.053Z,12.68
2023-01-23T07:11:16.702Z,12.55
2023-01-23T07:16:18.853Z,11.00
2023-01-23T07:21:20.503Z,12.02
2023-01-23T07:26:21.930Z,12.00
2023-01-23T07:31:23.603Z,11.80
2023-01-23T07:36:25.187Z,12.32
2023-01-23T07:41:26.626Z,12.20
2023-01-23T07:46:28.145Z,11.13
2023-01-23T07:51:29.700Z,10.70
2023-01-23T07:56:31.841Z,12.00
2023-01-23T08:01:33.314Z,9.90
2023-01-23T08:06:34.758Z,10.15
2023-01-23T08:11:36.246Z,11.63
2023-01-23T08:16:37.784Z,10.85
2023-01-23T08:21:39.239Z,12.77
2023-01-23T08:26:42.004Z,10.38
2023-01-23T08:31:43.524Z,9.00
2023-01-23T08:36:44.999Z,11.25
2023-01-23T08:41:46.711Z,11.50
2023-01-23T08:46:48.208Z,12.32
2023-01-23T08:51:49.663Z,13.65
2023-01-23T08:56:51.187Z,15.48
2023-01-23T09:01:52.718Z,14.27
2023-01-23T09:06:54.244Z,13.13
2023-01-23T09:11:55.921Z,15.05
2023-01-23T09:16:57.399Z,13.35
2023-01-23T09:21:58.902Z,18.70
2023-01-23T09:27:00.362Z,13.23
2023-01-23T09:32:02.464Z,11.98
2023-01-23T09:37:04.044Z,16.13
2023-01-23T09:42:08.229Z,11.48
2023-01-23T09:47:16.205Z,13.65
2023-01-23T09:52:28.721Z,11.93
2023-01-23T09:57:47.873Z,11.75
2023-01-23T10:02:49.699Z,13.38
2023-01-23T10:08:04.437Z,14.43
2023-01-23T10:13:16.718Z,13.63
2023-01-23T10:18:32.237Z,14.57
2023-01-23T10:23:44.462Z,13.45
2023-01-23T10:28:46.744Z,15.32
2023-01-23T10:34:18.545Z,17.45
2023-01-23T10:39:26.416Z,17.48
2023-01-23T10:44:27.866Z,14.50
2023-01-23T10:49:35.459Z,20.23
2023-01-23T10:54:46.151Z,19.80
2023-01-23T10:59:57.934Z,16.45
2023-01-23T11:05:00.184Z,18.08
2023-01-23T11:10:18.104Z,17.13
2023-01-23T11:15:24.644Z,23.63
2023-01-23T11:20:39.011Z,20.30
2023-01-23T11:25:48.834Z,19.80
2023-01-23T11:36:19.764Z,19.73
2023-01-23T11:41:30.706Z,19.33
2023-01-23T11:46:35.102Z,17.73
2023-01-23T11:51:56.998Z,15.90
2023-01-23T11:57:30.832Z,17.00
2023-01-23T12:03:00.372Z,18.15
2023-01-23T12:08:18.247Z,17.23
2023-01-23T12:13:43.736Z,17.13
2023-01-23T12:19:16.341Z,15.90
2023-01-23T12:24:34.763Z,15.05
2023-01-23T12:30:05.252Z,15.48
2023-01-23T12:40:45.778Z,11.57
2023-01-23T12:45:58.424Z,15.63
2023-01-23T12:51:06.405Z,12.55
2023-01-23T12:56:17.392Z,15.00
2023-01-23T13:01:47.488Z,12.27
2023-01-23T13:07:03.149Z,13.95
2023-01-23T13:12:19.535Z,11.50
2023-01-23T13:17:28.711Z,12.30
2023-01-23T13:22:33.138Z,14.20
2023-01-23T13:27:40.049Z,15.02
2023-01-23T13:32:41.559Z,14.30
2023-01-23T13:37:48.844Z,17.38
2023-01-23T13:42:50.577Z,16.35
2023-01-23T14:20:41.528Z,17.38
2023-01-23T14:25:43.094Z,13.63
2023-01-23T14:31:02.697Z,15.98
2023-01-23T14:36:04.717Z,12.05
2023-01-23T14:41:07.665Z,14.63
2023-01-23T14:46:15.241Z,13.10
2023-01-23T14:51:25.747Z,13.07
2023-01-23T14:56:39.167Z,12.73
2023-01-23T15:01:40.664Z,12.23
2023-01-23T15:06:42.265Z,12.05
2023-01-23T15:11:45.071Z,13.32
2023-01-23T15:16:46.741Z,11.85
2023-01-23T15:21:49.275Z,13.07
2023-01-23T15:26:58.729Z,15.27
2023-01-23T15:32:01.197Z,16.15
2023-01-23T15:37:04.503Z,14.15
2023-01-23T15:42:12.103Z,16.77
2023-01-23T15:47:13.542Z,18.25
2023-01-23T15:52:27.048Z,22.08
2023-01-23T15:57:28.876Z,20.08
2023-01-23T16:02:32.958Z,19.73
2023-01-23T16:07:40.474Z,21.95
2023-01-23T16:12:42.197Z,16.23
2023-01-23T16:17:44.265Z,18.08
2023-01-23T16:22:50.458Z,20.88
2023-01-23T16:27:52.086Z,17.08
2023-01-23T16:32:55.264Z,21.20
2023-01-23T16:37:59.158Z,18.02
2023-01-23T16:43:00.937Z,19.23
2023-01-23T16:48:02.449Z,17.55
2023-01-23T16:53:13.103Z,16.50
2023-01-23T16:58:24.119Z,12.77
2023-01-23T17:03:31.459Z,19.55
2023-01-23T17:08:32.905Z,18.35
2023-01-23T17:13:34.893Z,16.13
2023-01-23T17:18:36.980Z,15.45
2023-01-23T17:23:38.495Z,17.83
2023-01-23T17:28:40.004Z,21.77
2023-01-23T17:33:41.622Z,17.75
2023-01-23T17:38:43.138Z,21.65
2023-01-23T17:43:44.589Z,20.40
2023-01-23T17:48:46.105Z,15.10
2023-01-23T17:53:48.266Z,15.32
2023-01-23T17:58:49.757Z,15.85
2023-01-23T18:03:52.675Z,19.23
2023-01-23T18:08:54.182Z,18.55
2023-01-23T18:13:55.634Z,18.58
2023-01-23T18:19:00.457Z,14.88
2023-01-23T18:24:02.262Z,20.45
2023-01-23T18:29:09.773Z,18.45
2023-01-23T18:34:24.210Z,15.98
2023-01-23T18:39:25.666Z,13.35
2023-01-23T18:44:28.090Z,15.85
2023-01-23T18:49:32.938Z,15.73
2023-01-23T18:54:42.790Z,16.52
2023-01-23T19:00:10.561Z,19.50
2023-01-23T19:05:12.003Z,18.40
2023-01-23T19:10:24.905Z,15.15
2023-01-23T19:15:46.951Z,18.05
2023-01-23T19:20:51.480Z,18.90
2023-01-23T19:25:53.328Z,18.05
2023-01-23T19:30:55.126Z,18.75
2023-01-23T19:35:56.715Z,20.60
2023-01-23T19:40:58.182Z,15.57
2023-01-23T19:45:59.746Z,23.38
2023-01-23T19:51:01.238Z,18.73
2023-01-23T19:56:02.688Z,17.25
2023-01-23T20:01:22.452Z,19.58
2023-01-23T20:06:23.989Z,19.90
2023-01-23T20:11:25.709Z,20.48
2023-01-23T20:16:27.342Z,17.85
2023-01-23T20:21:28.803Z,14.88
2023-01-23T20:26:30.310Z,22.17
2023-01-23T20:31:32.049Z,18.98
2023-01-23T20:36:33.751Z,15.77
2023-01-23T20:41:35.198Z,15.55
2023-01-23T20:46:36.652Z,16.25
2023-01-23T20:51:38.154Z,20.92
2023-01-23T20:56:39.642Z,14.32
2023-01-23T21:01:42.173Z,13.98
2023-01-23T21:06:43.683Z,16.23
2023-01-23T21:11:45.529Z,19.67
2023-01-23T21:16:48.066Z,23.02
2023-01-23T21:21:49.669Z,13.30
2023-01-23T21:26:51.218Z,17.77
2023-01-23T21:31:52.761Z,16.90
2023-01-23T21:36:54.310Z,16.90
2023-01-23T21:41:55.840Z,15.55
2023-01-23T21:46:57.299Z,16.05
2023-01-23T21:51:58.790Z,17.90
2023-01-23T21:57:00.310Z,16.27
2023-01-23T22:02:01.809Z,15.75
2023-01-23T22:07:03.359Z,15.65
2023-01-23T22:12:05.190Z,17.77
2023-01-23T22:17:06.675Z,17.48
2023-01-23T22:22:08.158Z,19.25
2023-01-23T22:27:09.688Z,14.95
2023-01-23T22:32:11.310Z,15.85
2023-01-23T22:37:12.906Z,18.42
2023-01-23T22:42:14.589Z,14.77
2023-01-23T22:47:16.113Z,18.92
2023-01-23T22:52:17.646Z,14.20
2023-01-23T22:57:19.153Z,15.90
2023-01-23T23:02:20.631Z,15.63
2023-01-23T23:07:22.153Z,16.17
2023-01-23T23:12:23.850Z,14.82
2023-01-23T23:17:25.382Z,15.45
2023-01-23T23:22:27.055Z,14.45
2023-01-23T23:27:28.492Z,15.10
2023-01-23T23:32:31.080Z,13.95
2023-01-23T23:37:32.569Z,14.88
2023-01-23T23:42:34.032Z,14.25
2023-01-23T23:47:35.463Z,13.27
2023-01-23T23:52:36.991Z,15.80
2023-01-23T23:57:38.943Z,14.63
